Weather at Kashechewan Airport

Public forecast

Using degrees Celsius for public forecast. Weather courtesy of forecast.io.

Closest aviation weather report (METAR) to Kashechewan Airport

Closest report is Attawapiskat Airport, 47.5 nm (88.0 km) NW. Retrieved 2020/09/22 06:34 UTC (2 minutes ago):

CYAT 220634Z AUTO 21012G20KT 180V240 9SM BKN044 OVC055 15/13 A2970 RMK SLP058 DENSITY ALT 200FT

Closest aviation forecast (TAF) to Kashechewan Airport

Forecast is more than 12 hours old.

Closest forecast is Attawapiskat Airport, 47.5 nm (88.0 km) NW. Retrieved 2020/09/21 15:00 UTC (16 hours ago):

TAF CYAT 211438Z 2115/2119 21012G22KT P6SM SCT050 BKN120 FM211800 21015G25KT P6SM FEW070 RMK FCST BASED ON AUTO OBS NXT FCST WILL BE ISSUED AT 220845Z